Time;durP1;ratioP1;P1;durP2;ratioP2;P2;SDS_P1;SDS_P2;PMS_P1;PMS_P2;Temp;Humidity;BMP_temperature;BMP_pressure;BME280_temperature;BME280_humidity;BME280_pressure;Samples;Min_cycle;Max_cycle;Signal;HPM_P1;HPM_P2
2022/09/15 00:00:55;;;;;;;7.05;6.30;;;;;;;14.57;77.06;99242.53;1721857;81;21008;-73
2022/09/15 00:03:22;;;;;;;7.12;6.35;;;;;;;14.56;77.04;99249.33;1720602;81;21873;-73
2022/09/15 00:05:49;;;;;;;7.75;6.92;;;;;;;14.56;76.97;99252.81;1716979;81;21521;-73
2022/09/15 00:08:16;;;;;;;7.05;6.33;;;;;;;14.55;76.81;99254.32;1689530;83;20956;-73
2022/09/15 00:10:52;;;;;;;6.47;5.87;;;;;;;14.54;76.69;99254.82;1704452;82;21000;-73
2022/09/15 00:13:19;;;;;;;8.35;6.30;;;;;;;14.51;76.65;99253.03;1722713;81;20943;-73
2022/09/15 00:15:46;;;;;;;6.83;5.97;;;;;;;14.49;76.62;99256.36;1721827;81;21888;-73
2022/09/15 00:18:12;;;;;;;7.30;6.28;;;;;;;14.46;76.52;99251.38;1718104;81;20993;-73
2022/09/15 00:20:42;;;;;;;6.87;6.08;;;;;;;14.43;76.50;99250.38;1719238;81;20951;-73
2022/09/15 00:23:10;;;;;;;6.78;6.15;;;;;;;14.41;76.49;99260.35;1717083;81;21409;-74
2022/09/15 00:25:51;;;;;;;7.12;6.40;;;;;;;14.38;76.41;99255.36;1713094;81;21050;-73
2022/09/15 00:28:20;;;;;;;8.38;6.60;;;;;;;14.33;76.24;99262.04;1718937;81;22944;-72
2022/09/15 00:30:49;;;;;;;8.00;6.15;;;;;;;14.23;76.13;99254.78;1666883;83;21363;-71
2022/09/15 00:33:16;;;;;;;7.53;6.55;;;;;;;14.16;76.26;99244.52;1718975;81;21011;-72
2022/09/15 00:35:45;;;;;;;7.58;6.47;;;;;;;14.12;76.29;99244.54;1721326;81;20998;-72
2022/09/15 00:38:13;;;;;;;8.28;6.15;;;;;;;14.09;76.21;99244.03;1700285;83;21046;-72
2022/09/15 00:40:54;;;;;;;8.80;6.60;;;;;;;14.04;76.28;99248.55;1716560;81;21870;-72
2022/09/15 00:43:41;;;;;;;9.50;6.53;;;;;;;13.99;76.28;99249.08;1712044;82;20936;-73
2022/09/15 00:46:08;;;;;;;8.63;6.95;;;;;;;13.95;76.25;99251.72;1718090;81;20949;-72
2022/09/15 00:48:36;;;;;;;8.00;7.20;;;;;;;13.91;76.46;99253.08;1715381;82;21007;-72
2022/09/15 00:51:02;;;;;;;9.03;7.50;;;;;;;13.91;76.63;99257.06;1713402;82;21121;-75
2022/09/15 00:53:29;;;;;;;8.25;7.10;;;;;;;13.91;76.63;99249.59;1713623;82;21750;-72
2022/09/15 00:55:56;;;;;;;11.53;7.00;;;;;;;13.88;76.67;99250.74;1718847;82;21525;-73
2022/09/15 00:58:42;;;;;;;8.38;6.70;;;;;;;13.85;76.72;99248.94;1708212;82;21023;-72
2022/09/15 01:01:09;;;;;;;8.78;6.83;;;;;;;13.80;76.73;99252.13;1727498;80;21004;-73
2022/09/15 01:03:36;;;;;;;9.23;6.87;;;;;;;13.75;76.62;99253.11;1716937;81;21051;-71
2022/09/15 01:06:14;;;;;;;10.80;7.12;;;;;;;13.71;76.56;99251.80;1710175;82;21901;-71
2022/09/15 01:09:04;;;;;;;11.60;7.80;;;;;;;13.66;76.69;99249.64;1683693;82;21099;-72
2022/09/15 01:11:31;;;;;;;7.67;6.95;;;;;;;13.60;76.81;99250.30;1700059;82;21026;-72
2022/09/15 01:13:58;;;;;;;11.83;7.05;;;;;;;13.58;76.93;99248.33;1714763;81;21034;-76
2022/09/15 01:16:49;;;;;;;9.93;6.28;;;;;;;13.58;76.97;99250.98;1712828;82;21497;-72
2022/09/15 01:19:59;;;;;;;8.95;6.50;;;;;;;13.56;77.02;99254.30;1715362;82;22551;-72
2022/09/15 01:22:52;;;;;;;8.98;7.70;;;;;;;13.53;77.04;99255.98;1716315;81;21050;-72
2022/09/15 01:25:40;;;;;;;11.73;7.42;;;;;;;13.50;77.17;99244.36;1692897;82;21537;-72
2022/09/15 01:28:49;;;;;;;8.90;7.60;;;;;;;13.46;77.34;99245.20;1715839;82;21439;-71
2022/09/15 01:31:35;;;;;;;13.30;7.17;;;;;;;13.42;77.41;99245.72;1717778;81;21000;-72
2022/09/15 01:34:07;;;;;;;9.93;7.22;;;;;;;13.36;77.43;99244.55;1692946;81;22462;-72
2022/09/15 01:36:56;;;;;;;8.45;7.08;;;;;;;13.30;77.49;99245.70;1708325;81;21014;-72
2022/09/15 01:39:28;;;;;;;9.03;7.30;;;;;;;13.26;77.56;99251.84;1700792;83;21066;-74
2022/09/15 01:42:01;;;;;;;7.95;7.10;;;;;;;13.24;77.56;99250.37;1697028;81;21098;-72
2022/09/15 01:44:44;;;;;;;8.73;6.47;;;;;;;13.23;77.37;99256.17;1716034;83;20987;-72
2022/09/15 01:47:14;;;;;;;9.53;6.72;;;;;;;13.19;77.30;99256.15;1727619;81;21931;-73
2022/09/15 01:49:49;;;;;;;9.83;7.10;;;;;;;13.16;77.41;99254.64;1718422;81;20944;-75
2022/09/15 01:52:17;;;;;;;7.70;6.90;;;;;;;13.16;77.37;99255.96;1696796;81;21046;-72
2022/09/15 01:54:47;;;;;;;9.63;7.55;;;;;;;13.13;77.28;99252.33;1722129;81;21522;-72
2022/09/15 01:57:20;;;;;;;9.75;7.95;;;;;;;13.11;77.28;99249.48;1717779;81;21015;-72
2022/09/15 01:59:45;;;;;;;9.15;8.25;;;;;;;13.11;77.52;99237.55;1692788;81;21870;-72
2022/09/15 02:02:19;;;;;;;8.85;7.97;;;;;;;13.14;77.75;99231.94;1720617;81;21073;-72
2022/09/15 02:04:52;;;;;;;10.53;8.50;;;;;;;13.16;77.89;99221.49;1716040;81;20869;-77
2022/09/15 02:07:43;;;;;;;9.85;8.35;;;;;;;13.19;77.90;99219.03;1705867;81;20995;-72
2022/09/15 02:10:25;;;;;;;13.28;8.60;;;;;;;13.21;77.86;99221.02;1726856;81;21007;-72
2022/09/15 02:13:17;;;;;;;11.00;8.55;;;;;;;13.21;77.79;99217.03;1715606;81;21830;-72
2022/09/15 02:15:53;;;;;;;10.78;8.75;;;;;;;13.20;77.86;99210.08;1713682;81;20911;-71
2022/09/15 02:18:42;;;;;;;9.95;8.15;;;;;;;13.22;77.75;99201.48;1695990;83;21003;-71
2022/09/15 02:21:20;;;;;;;9.18;7.22;;;;;;;13.22;77.65;99200.16;1685848;81;21019;-73
2022/09/15 02:23:54;;;;;;;10.70;7.92;;;;;;;13.20;77.57;99190.69;1723276;81;21012;-72
2022/09/15 02:26:23;;;;;;;9.00;8.10;;;;;;;13.20;77.50;99189.36;1735461;81;21932;-73
2022/09/15 02:28:51;;;;;;;8.45;7.55;;;;;;;13.20;77.38;99178.76;1720427;81;20896;-73
2022/09/15 02:31:18;;;;;;;9.08;8.00;;;;;;;13.18;77.33;99177.58;1717457;81;20960;-71
2022/09/15 02:33:58;;;;;;;11.10;7.67;;;;;;;13.17;77.22;99178.08;1719007;81;20998;-77
2022/09/15 02:36:24;;;;;;;10.25;7.85;;;;;;;13.17;77.18;99181.22;1727190;81;20944;-71
2022/09/15 02:39:02;;;;;;;10.10;7.78;;;;;;;13.17;77.11;99175.42;1710727;81;21821;-72
2022/09/15 02:41:29;;;;;;;10.85;7.95;;;;;;;13.16;77.05;99172.45;1711789;82;21082;-72
2022/09/15 02:43:55;;;;;;;11.85;10.50;;;;;;;13.17;77.07;99171.95;1722864;82;20988;-72
2022/09/15 02:46:23;;;;;;;11.33;9.73;;;;;;;13.16;77.10;99179.07;1703696;82;21051;-72
2022/09/15 02:48:49;;;;;;;11.40;9.95;;;;;;;13.17;77.06;99175.42;1700857;82;21010;-71
2022/09/15 02:51:17;;;;;;;10.00;8.95;;;;;;;13.17;76.91;99175.42;1702141;82;21906;-72
2022/09/15 02:53:44;;;;;;;11.00;9.70;;;;;;;13.17;76.89;99175.92;1704341;82;21008;-72
2022/09/15 02:56:11;;;;;;;11.28;8.60;;;;;;;13.16;76.95;99165.81;1702350;82;21004;-72
2022/09/15 02:58:39;;;;;;;13.83;9.33;;;;;;;13.18;77.15;99166.97;1715676;82;21030;-76
2022/09/15 03:01:06;;;;;;;12.13;10.25;;;;;;;13.21;77.23;99169.31;1728111;82;21007;-72
2022/09/15 03:03:33;;;;;;;12.13;10.08;;;;;;;13.23;77.19;99170.49;1704909;82;21519;-71
2022/09/15 03:06:15;;;;;;;11.28;9.73;;;;;;;13.24;77.13;99168.99;1727773;82;21327;-71
2022/09/15 03:08:52;;;;;;;15.90;9.43;;;;;;;13.26;77.19;99167.49;1716886;83;21000;-71
2022/09/15 03:11:20;;;;;;;9.03;8.13;;;;;;;13.29;77.29;99164.49;1732413;82;21038;-71
2022/09/15 03:13:47;;;;;;;11.95;8.73;;;;;;;13.32;77.34;99168.98;1718017;82;21062;-71
2022/09/15 03:16:15;;;;;;;14.03;8.98;;;;;;;13.36;77.33;99166.81;1726065;82;21959;-75
2022/09/15 03:18:41;;;;;;;10.95;7.92;;;;;;;13.38;77.34;99167.46;1713425;82;20992;-72
2022/09/15 03:21:11;;;;;;;10.48;8.15;;;;;;;13.40;77.41;99165.46;1707571;82;20945;-71
2022/09/15 03:23:40;;;;;;;10.13;8.40;;;;;;;13.43;77.51;99163.82;1716403;81;21384;-72
2022/09/15 03:26:08;;;;;;;12.30;8.43;;;;;;;13.44;77.59;99162.31;1717218;82;21362;-72
2022/09/15 03:28:36;;;;;;;9.70;8.43;;;;;;;13.48;77.60;99158.81;1721559;82;21918;-72
2022/09/15 03:31:02;;;;;;;9.48;8.03;;;;;;;13.50;77.66;99148.03;1736943;82;21071;-72
2022/09/15 03:33:29;;;;;;;10.40;8.40;;;;;;;13.53;77.69;99151.19;1707038;81;21067;-73
2022/09/15 03:35:56;;;;;;;11.40;8.10;;;;;;;13.57;77.70;99145.86;1721848;82;21007;-71
2022/09/15 03:38:23;;;;;;;11.08;7.70;;;;;;;13.59;77.75;99139.87;1680260;83;21098;-72
2022/09/15 03:41:02;;;;;;;9.98;8.40;;;;;;;;;;1731299;80;21823;-72
2022/09/15 03:43:30;;;;;;;9.05;7.75;;;;;;;13.63;77.78;99135.90;1715305;81;21351;-74
2022/09/15 03:45:57;;;;;;;10.55;7.10;;;;;;;13.67;77.83;99132.39;1723717;81;20979;-72
2022/09/15 03:48:24;;;;;;;10.53;7.53;;;;;;;13.69;77.91;99125.91;1723927;81;20987;-72
2022/09/15 03:50:51;;;;;;;10.70;8.10;;;;;;;13.73;77.95;99127.73;1735705;80;21070;-72
2022/09/15 03:53:17;;;;;;;9.15;7.10;;;;;;;13.74;78.01;99123.58;1721190;81;21825;-71
2022/09/15 03:55:44;;;;;;;11.48;7.05;;;;;;;13.78;78.09;99120.57;1719830;81;20992;-72
2022/09/15 03:58:12;;;;;;;9.18;7.53;;;;;;;13.80;78.16;99120.75;1721321;81;21406;-71
2022/09/15 04:00:39;;;;;;;9.13;7.37;;;;;;;13.83;78.17;99123.55;1685185;81;21136;-72
2022/09/15 04:03:06;;;;;;;9.13;7.60;;;;;;;13.86;78.18;99135.95;1691495;81;21403;-72
2022/09/15 04:05:34;;;;;;;8.25;7.40;;;;;;;13.85;78.24;99130.83;1697123;83;22561;-71
2022/09/15 04:08:02;;;;;;;11.05;7.55;;;;;;;13.83;78.40;99125.70;1723329;81;20987;-73
2022/09/15 04:10:29;;;;;;;10.65;7.28;;;;;;;13.85;78.59;99117.56;1709891;81;20960;-71
2022/09/15 04:12:55;;;;;;;8.08;7.12;;;;;;;13.87;78.67;99113.72;1721513;81;21018;-72
2022/09/15 04:15:22;;;;;;;10.03;7.03;;;;;;;13.90;78.70;99104.11;1718811;81;21257;-74
2022/09/15 04:17:48;;;;;;;9.80;7.00;;;;;;;13.93;78.69;99098.44;1715801;81;21844;-71
2022/09/15 04:20:16;;;;;;;8.05;7.20;;;;;;;13.97;78.71;99103.72;1720005;81;21031;-71
2022/09/15 04:22:44;;;;;;;7.85;6.80;;;;;;;14.01;78.73;99102.88;1738403;81;21127;-72
2022/09/15 04:25:10;;;;;;;8.73;7.28;;;;;;;14.04;78.75;99110.48;1722247;81;21466;-71
2022/09/15 04:27:38;;;;;;;10.53;7.33;;;;;;;14.09;78.82;99114.79;1723414;81;21458;-73
2022/09/15 04:30:06;;;;;;;8.73;7.53;;;;;;;14.12;78.82;99106.97;1708166;81;21863;-72
2022/09/15 04:32:35;;;;;;;8.98;7.00;;;;;;;14.16;78.86;99102.94;1719647;81;21303;-72
2022/09/15 04:35:03;;;;;;;13.03;7.45;;;;;;;14.19;78.88;99106.09;1719686;81;21062;-71
2022/09/15 04:37:31;;;;;;;8.70;6.60;;;;;;;14.23;78.91;99105.23;1719834;81;21074;-72
2022/09/15 04:39:58;;;;;;;8.85;7.22;;;;;;;14.26;78.91;99104.87;1727551;80;21684;-71
2022/09/15 04:42:25;;;;;;;10.08;6.25;;;;;;;14.28;79.00;99109.02;1702774;82;21647;-74
2022/09/15 04:44:52;;;;;;;7.22;6.30;;;;;;;14.30;79.00;99107.52;1689111;82;21015;-75
2022/09/15 04:47:18;;;;;;;8.58;6.35;;;;;;;14.29;79.02;99100.55;1703443;82;21102;-74
2022/09/15 04:49:45;;;;;;;7.90;6.05;;;;;;;14.30;79.05;99099.05;1696934;82;22094;-72
2022/09/15 04:52:12;;;;;;;9.68;6.25;;;;;;;14.35;79.02;99103.81;1695095;82;21059;-77
2022/09/15 04:54:38;;;;;;;12.65;5.87;;;;;;;14.40;78.97;99107.28;1695530;82;22242;-71
2022/09/15 04:57:05;;;;;;;11.80;5.95;;;;;;;14.44;78.73;99109.89;1696124;82;21027;-74
2022/09/15 04:59:48;;;;;;;7.58;5.40;;;;;;;14.47;78.40;99113.05;1704231;82;21011;-74
2022/09/15 05:02:19;;;;;;;10.82;6.47;;;;;;;14.50;78.03;99110.56;1705112;82;21086;-72
2022/09/15 05:04:48;;;;;;;8.85;6.28;;;;;;;14.54;77.68;99109.19;1702178;82;21095;-70
2022/09/15 05:07:15;;;;;;;9.63;6.65;;;;;;;14.57;77.44;99114.98;1696192;82;21802;-75
2022/09/15 05:09:42;;;;;;;8.30;6.70;;;;;;;14.60;77.24;99119.11;1699279;82;21483;-73
2022/09/15 05:12:08;;;;;;;8.85;6.53;;;;;;;14.59;77.02;99116.96;1697996;82;21051;-75
2022/09/15 05:14:35;;;;;;;8.05;6.62;;;;;;;14.60;77.01;99118.61;1696204;82;21028;-75
2022/09/15 05:17:02;;;;;;;10.32;6.78;;;;;;;14.63;76.99;99118.75;1707003;82;21059;-75
2022/09/15 05:19:28;;;;;;;11.63;7.00;;;;;;;14.66;77.03;99121.03;1696035;82;22276;-72
2022/09/15 05:21:55;;;;;;;10.13;7.30;;;;;;;14.66;77.01;99117.05;1706092;82;21028;-72
2022/09/15 05:24:21;;;;;;;9.48;6.75;;;;;;;14.69;76.93;99108.74;1699504;82;21005;-72
2022/09/15 05:26:48;;;;;;;9.60;7.12;;;;;;;14.72;76.91;99110.20;1698443;82;21059;-74
2022/09/15 05:29:14;;;;;;;10.03;7.37;;;;;;;14.74;76.87;99104.20;1699774;82;21056;-74
2022/09/15 05:31:41;;;;;;;8.05;7.15;;;;;;;14.77;76.82;99113.17;1702281;81;21894;-71
2022/09/15 05:34:09;;;;;;;8.40;6.90;;;;;;;14.80;76.60;99111.47;1711618;81;21035;-72
2022/09/15 05:36:35;;;;;;;11.63;6.17;;;;;;;14.80;76.29;99114.95;1696215;82;21083;-72
2022/09/15 05:39:02;;;;;;;7.78;5.42;;;;;;;14.83;76.13;99111.92;1709137;82;21496;-74
2022/09/15 05:41:28;;;;;;;7.30;5.10;;;;;;;14.86;75.94;99120.89;1698386;82;21206;-72
2022/09/15 05:43:58;;;;;;;8.33;5.00;;;;;;;14.89;75.66;99114.38;1724861;82;21894;-71
2022/09/15 05:46:32;;;;;;;6.72;4.62;;;;;;;14.91;75.57;99108.38;1733304;80;21105;-72
2022/09/15 05:49:45;;;;;;;9.93;5.28;;;;;;;14.97;75.50;99107.66;1715195;82;21005;-77
2022/09/15 05:52:50;;;;;;;5.40;4.87;;;;;;;15.02;75.27;99112.42;1715925;82;21000;-74
2022/09/15 05:55:34;;;;;;;7.17;5.08;;;;;;;15.06;74.94;99129.69;1692692;82;21043;-73
2022/09/15 05:58:05;;;;;;;8.18;5.97;;;;;;;15.09;74.55;99137.30;1707332;82;21780;-76
2022/09/15 06:00:32;;;;;;;7.60;5.67;;;;;;;15.10;74.48;99128.31;1712140;82;21106;-73
2022/09/15 06:02:59;;;;;;;8.30;5.90;;;;;;;15.13;74.56;99117.30;1710088;82;21321;-73
2022/09/15 06:05:26;;;;;;;7.00;5.28;;;;;;;15.17;74.58;99119.94;1711232;82;21062;-72
2022/09/15 06:07:54;;;;;;;9.95;5.70;;;;;;;15.19;74.58;99121.91;1726885;82;21054;-77
2022/09/15 06:10:23;;;;;;;7.85;5.87;;;;;;;15.18;74.60;99121.58;1721848;80;21847;-78
2022/09/15 06:12:54;;;;;;;9.63;6.25;;;;;;;15.18;74.67;99113.09;1709809;82;21063;-78
2022/09/15 06:15:22;;;;;;;12.03;5.95;;;;;;;15.19;74.79;99111.27;1717329;81;21070;-78
2022/09/15 06:17:51;;;;;;;7.85;5.50;;;;;;;15.23;74.90;99111.20;1708557;82;21192;-78
2022/09/15 06:20:20;;;;;;;8.20;5.75;;;;;;;15.27;74.92;99106.37;1709184;82;21063;-79
2022/09/15 06:25:20;;;;;;;8.30;6.20;;;;;;;15.28;74.88;99105.36;1709501;82;21031;-80
2022/09/15 06:27:49;;;;;;;7.72;5.65;;;;;;;15.29;74.83;99109.16;1713486;82;21034;-78
2022/09/15 06:30:17;;;;;;;8.88;5.80;;;;;;;15.31;74.89;99109.80;1713541;82;21046;-78
2022/09/15 06:32:44;;;;;;;13.80;6.17;;;;;;;15.33;74.97;99112.27;1710803;82;21086;-78
2022/09/15 06:35:10;;;;;;;11.50;6.50;;;;;;;15.34;75.17;99105.94;1709525;82;21765;-78
2022/09/15 06:37:37;;;;;;;11.15;6.87;;;;;;;15.37;75.32;99102.93;1715926;82;21051;-79
2022/09/15 06:40:06;;;;;;;10.03;7.05;;;;;;;15.38;75.26;99096.59;1715842;81;21449;-79
2022/09/15 06:42:34;;;;;;;8.05;7.25;;;;;;;15.39;75.23;99093.75;1721185;81;21062;-80
2022/09/15 06:45:03;;;;;;;11.45;8.73;;;;;;;15.45;75.31;99082.89;1718797;81;21019;-78
2022/09/15 06:47:32;;;;;;;14.90;10.58;;;;;;;15.49;75.34;99082.00;1720003;81;22264;-77
2022/09/15 06:49:59;;;;;;;17.57;13.00;;;;;;;15.52;75.20;99089.60;1714680;82;20931;-77
2022/09/15 06:52:26;;;;;;;14.25;10.85;;;;;;;15.55;74.97;99098.06;1723944;81;21145;-79
2022/09/15 06:54:53;;;;;;;12.15;9.30;;;;;;;15.61;74.96;99100.00;1719619;81;21097;-74
2022/09/15 06:57:20;;;;;;;10.85;8.55;;;;;;;15.63;74.82;99094.01;1733139;81;21062;-76
2022/09/15 06:59:46;;;;;;;11.48;7.47;;;;;;;15.64;74.32;99092.99;1728211;81;21891;-76
2022/09/15 07:02:13;;;;;;;10.98;6.42;;;;;;;15.68;74.27;99095.59;1705077;81;21059;-74
2022/09/15 07:04:39;;;;;;;7.35;5.50;;;;;;;15.72;74.15;99096.03;1721684;81;21581;-74
2022/09/15 07:07:06;;;;;;;7.47;5.22;;;;;;;15.73;73.95;99095.88;1729960;81;21071;-73
2022/09/15 07:09:33;;;;;;;6.58;4.83;;;;;;;15.74;73.67;99091.38;1722686;82;21061;-72
2022/09/15 07:12:00;;;;;;;7.83;5.05;;;;;;;15.76;73.53;99081.36;1722120;82;21780;-77
2022/09/15 07:14:26;;;;;;;8.80;5.15;;;;;;;15.81;73.45;99082.94;1712163;81;21505;-75
2022/09/15 07:16:53;;;;;;;8.73;5.30;;;;;;;15.84;73.44;99070.61;1721794;81;21077;-76
2022/09/15 07:19:20;;;;;;;6.10;5.15;;;;;;;15.88;73.29;99074.53;1705752;83;21028;-76
2022/09/15 07:21:47;;;;;;;7.00;5.70;;;;;;;15.92;73.19;99063.84;1719002;81;21134;-76
2022/09/15 07:24:14;;;;;;;10.28;6.28;;;;;;;15.96;73.04;99075.75;1715243;81;21775;-77
2022/09/15 07:26:40;;;;;;;6.85;5.67;;;;;;;15.99;72.99;99079.36;1723073;81;21468;-77
2022/09/15 07:29:08;;;;;;;8.13;6.60;;;;;;;15.99;72.85;99078.03;1728832;81;21485;-78
2022/09/15 07:31:37;;;;;;;11.18;6.33;;;;;;;16.00;72.84;99081.52;1717127;81;21007;-75
2022/09/15 07:34:03;;;;;;;10.30;6.35;;;;;;;16.01;72.60;99072.52;1716138;80;21057;-73
2022/09/15 07:36:31;;;;;;;12.60;6.47;;;;;;;16.01;72.49;99069.84;1725037;81;21917;-71
2022/09/15 07:38:58;;;;;;;12.33;6.15;;;;;;;16.04;72.56;99066.83;1719256;82;20935;-69
2022/09/15 07:41:28;;;;;;;7.35;5.72;;;;;;;16.08;72.42;99071.26;1709527;81;21050;-71
2022/09/15 07:43:57;;;;;;;9.90;5.72;;;;;;;16.10;72.14;99062.06;1713413;83;21669;-74
2022/09/15 07:46:25;;;;;;;8.80;5.70;;;;;;;16.11;71.94;99060.22;1716822;83;21062;-72
2022/09/15 07:48:55;;;;;;;7.55;5.70;;;;;;;16.16;71.93;99052.50;1719586;82;21760;-72
2022/09/15 07:51:22;;;;;;;11.20;5.92;;;;;;;16.23;71.98;99050.73;1715826;82;20995;-72
2022/09/15 07:53:49;;;;;;;13.35;6.60;;;;;;;16.28;72.03;99041.14;1717648;81;20976;-73
2022/09/15 07:56:18;;;;;;;9.15;6.10;;;;;;;16.35;71.87;99031.05;1704138;81;21101;-72
2022/09/15 07:58:46;;;;;;;8.03;5.62;;;;;;;16.39;71.43;99035.80;1709059;83;21500;-71
2022/09/15 08:01:15;;;;;;;7.05;5.87;;;;;;;16.43;71.06;99062.40;1714081;83;21724;-74
2022/09/15 08:03:47;;;;;;;9.80;5.87;;;;;;;16.42;70.79;99058.09;1715527;83;20999;-71
2022/09/15 08:06:15;;;;;;;12.47;6.10;;;;;;;16.45;70.75;99062.20;1710237;82;20983;-72
2022/09/15 08:08:47;;;;;;;8.90;5.95;;;;;;;16.48;70.75;99055.14;1715117;81;20972;-71
2022/09/15 08:11:15;;;;;;;10.45;6.08;;;;;;;16.52;70.92;99061.25;1713403;83;21004;-71
2022/09/15 08:13:43;;;;;;;8.88;6.20;;;;;;;16.54;71.39;99061.88;1710902;82;21978;-77
2022/09/15 08:16:15;;;;;;;13.20;6.15;;;;;;;16.53;71.71;99080.22;1714916;82;20990;-72
2022/09/15 08:18:42;;;;;;;11.48;6.12;;;;;;;16.48;71.71;99070.63;1709377;83;21030;-72
2022/09/15 08:21:12;;;;;;;9.75;6.03;;;;;;;16.43;71.72;99071.72;1712612;82;21019;-72
2022/09/15 08:23:39;;;;;;;11.65;6.15;;;;;;;16.41;71.93;99071.61;1719021;82;20947;-74
2022/09/15 08:26:10;;;;;;;9.40;6.25;;;;;;;16.41;72.31;99072.43;1701306;83;21893;-73
2022/09/15 08:28:37;;;;;;;9.95;6.25;;;;;;;16.45;72.83;99067.02;1709277;83;21629;-73
2022/09/15 08:31:06;;;;;;;9.90;6.28;;;;;;;16.44;73.50;99062.71;1707468;81;21068;-77
2022/09/15 08:33:34;;;;;;;11.83;5.90;;;;;;;16.44;74.10;99068.55;1720961;81;21006;-72
2022/09/15 08:36:05;;;;;;;7.83;5.40;;;;;;;16.46;74.60;99062.00;1717573;83;21015;-73
2022/09/15 08:38:31;;;;;;;15.08;6.17;;;;;;;16.49;75.03;99056.79;1703457;83;22531;-71
2022/09/15 08:41:04;;;;;;;11.85;6.40;;;;;;;16.48;75.12;99059.14;1725759;81;20980;-71
2022/09/15 08:43:39;;;;;;;16.73;7.40;;;;;;;16.49;75.17;99058.13;1704329;83;24077;-71
2022/09/15 08:46:09;;;;;;;13.60;8.10;;;;;;;16.48;75.23;99054.64;1720655;81;21003;-77
2022/09/15 08:48:40;;;;;;;11.33;7.10;;;;;;;16.50;75.30;99052.62;1694702;83;21035;-71
2022/09/15 08:51:15;;;;;;;12.35;6.72;;;;;;;16.54;75.28;99051.72;1707447;83;21777;-72
2022/09/15 08:53:50;;;;;;;9.18;6.67;;;;;;;16.55;75.28;99046.20;1707922;83;20940;-72
2022/09/15 08:56:17;;;;;;;10.40;7.70;;;;;;;16.59;75.27;99047.45;1694929;83;21030;-72
2022/09/15 08:58:44;;;;;;;12.73;7.47;;;;;;;16.63;75.19;99053.23;1709401;82;21003;-72
2022/09/15 09:01:30;;;;;;;11.33;8.50;;;;;;;16.68;75.16;99052.64;1706872;82;21423;-74
2022/09/15 09:04:32;;;;;;;13.83;8.70;;;;;;;16.70;75.22;99046.66;1667563;81;21896;-73
2022/09/15 09:07:17;;;;;;;15.40;9.00;;;;;;;16.77;75.28;99047.52;1716174;81;21006;-76
2022/09/15 09:10:31;;;;;;;15.53;9.18;;;;;;;16.83;75.27;99034.24;1713472;83;21079;-72
2022/09/15 09:13:29;;;;;;;14.75;9.78;;;;;;;16.88;75.11;99036.31;1715226;83;21454;-73
2022/09/15 09:16:36;;;;;;;18.00;11.25;;;;;;;16.87;74.96;99026.66;1699077;82;21051;-74
2022/09/15 09:19:11;;;;;;;15.32;10.70;;;;;;;16.90;74.99;99032.97;1712794;83;21853;-71
2022/09/15 09:21:41;;;;;;;18.95;11.75;;;;;;;16.93;74.95;99029.89;1686030;83;20988;-71
2022/09/15 09:24:17;;;;;;;20.57;11.85;;;;;;;16.98;74.89;99030.63;1713981;81;21019;-74
2022/09/15 09:26:48;;;;;;;17.55;12.03;;;;;;;16.98;74.78;99021.30;1706316;83;21023;-72
2022/09/15 09:29:17;;;;;;;21.25;13.43;;;;;;;16.97;74.69;99015.65;1687452;81;21058;-73
2022/09/15 09:31:49;;;;;;;22.60;15.03;;;;;;;16.97;74.63;99019.65;1717984;81;21817;-70
2022/09/15 09:34:37;;;;;;;21.23;14.95;;;;;;;16.99;74.68;99025.13;1714441;81;21125;-71
2022/09/15 09:37:13;;;;;;;23.92;14.83;;;;;;;16.99;74.43;99021.12;1713305;81;21058;-71
2022/09/15 09:39:40;;;;;;;20.60;15.72;;;;;;;16.99;74.39;99030.97;1716539;81;21429;-70
2022/09/15 09:42:15;;;;;;;28.80;16.80;;;;;;;16.96;74.34;99018.83;1724133;81;20984;-71
2022/09/15 09:44:42;;;;;;;24.07;16.57;;;;;;;16.94;74.43;99020.05;1718279;83;21893;-72
2022/09/15 09:47:09;;;;;;;26.00;16.73;;;;;;;16.93;74.66;99018.41;1707680;83;20939;-71
2022/09/15 09:49:48;;;;;;;21.50;16.55;;;;;;;16.91;74.87;99017.78;1723067;81;21058;-71
2022/09/15 09:52:34;;;;;;;21.45;15.98;;;;;;;16.89;74.98;99020.66;1702971;83;21518;-70
2022/09/15 09:55:22;;;;;;;25.25;16.15;;;;;;;16.88;75.03;99015.80;1715087;83;20951;-72
2022/09/15 09:57:49;;;;;;;28.60;17.27;;;;;;;16.88;75.07;99014.46;1697026;83;22469;-72
2022/09/15 10:00:32;;;;;;;24.15;16.52;;;;;;;16.88;75.21;99005.13;1677170;83;21572;-72
2022/09/15 10:03:13;;;;;;;26.05;15.15;;;;;;;16.91;75.33;99002.60;1709574;81;20979;-72
2022/09/15 10:05:40;;;;;;;19.52;14.40;;;;;;;16.93;75.38;99000.56;1715138;82;21384;-72
2022/09/15 10:08:16;;;;;;;23.67;14.00;;;;;;;16.95;75.41;98995.84;1715794;81;21402;-72
2022/09/15 10:10:53;;;;;;;21.60;14.55;;;;;;;16.95;75.31;98995.84;1713766;81;21936;-72
2022/09/15 10:13:21;;;;;;;18.02;14.75;;;;;;;16.92;75.37;99012.25;1707970;83;21391;-72
2022/09/15 10:15:54;;;;;;;23.65;16.10;;;;;;;16.90;75.43;99011.63;1696263;81;21438;-72
2022/09/15 10:18:37;;;;;;;21.02;16.05;;;;;;;16.88;75.44;99013.13;1711691;81;21014;-74
2022/09/15 10:21:05;;;;;;;16.00;12.33;;;;;;;16.86;75.46;99016.51;1704025;81;21077;-72
2022/09/15 10:23:33;;;;;;;26.12;18.35;;;;;;;16.85;75.58;99013.53;1696876;83;22056;-72
2022/09/15 10:26:30;;;;;;;24.80;18.42;;;;;;;16.85;75.78;99016.70;1699370;83;21003;-72
2022/09/15 10:29:16;;;;;;;25.08;18.25;;;;;;;16.86;75.98;99013.02;1713234;83;21049;-70
2022/09/15 10:31:44;;;;;;;26.00;18.20;;;;;;;16.87;76.25;99012.81;1694297;83;21560;-71
2022/09/15 10:34:26;;;;;;;27.15;16.77;;;;;;;16.89;76.46;99012.65;1701959;83;21023;-71
2022/09/15 10:36:54;;;;;;;25.25;17.23;;;;;;;16.91;76.61;99006.61;1717230;83;21896;-72
2022/09/15 10:39:31;;;;;;;25.05;17.98;;;;;;;16.92;76.74;99004.25;1721180;81;21005;-71
2022/09/15 10:42:18;;;;;;;20.55;16.40;;;;;;;16.94;76.92;99007.53;1711344;83;21039;-72
2022/09/15 10:45:17;;;;;;;21.65;15.90;;;;;;;16.95;77.09;99004.36;1620196;85;21569;-72
2022/09/15 10:48:20;;;;;;;19.12;15.10;;;;;;;16.95;77.27;99001.18;1701623;82;21019;-71
2022/09/15 10:51:04;;;;;;;20.70;13.53;;;;;;;16.98;77.42;98995.95;1702197;84;21886;-71
2022/09/15 10:53:42;;;;;;;18.92;13.15;;;;;;;16.98;77.42;98996.77;1687910;84;20948;-72
2022/09/15 10:56:33;;;;;;;15.93;12.00;;;;;;;16.99;77.49;98995.78;1699388;82;21055;-71
2022/09/15 10:59:06;;;;;;;14.50;11.55;;;;;;;17.00;77.47;99000.61;1705902;82;21101;-72
2022/09/15 11:02:13;;;;;;;14.18;11.35;;;;;;;16.97;77.52;98996.98;1698600;83;21475;-71
2022/09/15 11:05:04;;;;;;;12.98;11.25;;;;;;;16.98;77.63;99006.11;1703249;83;21932;-74
2022/09/15 11:08:03;;;;;;;13.18;11.00;;;;;;;17.00;77.72;99009.43;1701622;82;21015;-78
2022/09/15 11:11:12;;;;;;;13.10;10.50;;;;;;;16.99;77.76;99010.97;1696446;82;20952;-72
2022/09/15 11:14:07;;;;;;;13.65;10.80;;;;;;;17.00;77.77;99019.28;1721491;82;20996;-72
2022/09/15 11:16:54;;;;;;;14.10;11.33;;;;;;;16.99;77.88;99020.30;1700845;83;21078;-71
2022/09/15 11:20:00;;;;;;;15.58;11.18;;;;;;;16.99;78.04;99008.30;1698814;82;22485;-71
2022/09/15 11:22:44;;;;;;;15.95;11.85;;;;;;;16.97;78.14;99009.80;1697987;82;21448;-71
2022/09/15 11:25:23;;;;;;;16.27;11.35;;;;;;;17.01;78.44;99009.74;1681732;82;21118;-71
2022/09/15 11:28:07;;;;;;;14.35;11.55;;;;;;;17.04;78.62;99008.00;1702426;83;21058;-71
2022/09/15 11:30:36;;;;;;;;;;;;;;;17.07;78.66;99006.27;1710717;82;21542;-70
2022/09/15 11:33:24;;;;;;;13.38;10.98;;;;;;;17.09;78.73;99004.77;1700502;82;21785;-71
2022/09/15 11:36:21;;;;;;;13.95;10.70;;;;;;;17.10;78.90;98998.41;1700694;83;21090;-71
2022/09/15 11:39:22;;;;;;;13.28;10.03;;;;;;;17.13;79.07;98992.16;1699641;82;21015;-70
2022/09/15 11:41:57;;;;;;;13.43;9.75;;;;;;;17.18;78.97;98984.91;1692915;83;21049;-71
2022/09/15 11:44:36;;;;;;;13.55;11.38;;;;;;;17.20;78.99;98985.52;1704781;83;21082;-71
2022/09/15 11:47:35;;;;;;;16.35;11.43;;;;;;;17.22;78.98;98984.80;1714034;82;22729;-72
2022/09/15 11:50:17;;;;;;;12.75;11.45;;;;;;;17.24;78.89;98986.77;1710083;82;21403;-73
2022/09/15 11:53:30;;;;;;;12.25;10.40;;;;;;;17.25;78.89;98983.06;1710663;81;21046;-72
2022/09/15 11:56:25;;;;;;;16.27;12.78;;;;;;;17.25;78.84;98984.91;1713815;81;21023;-72
2022/09/15 11:59:15;;;;;;;15.45;12.55;;;;;;;17.21;78.83;98987.16;1705750;83;21003;-71